createdAt,value
2022-12-06T00:01:35.930Z,41.83
2022-12-06T00:04:15.454Z,38.28
2022-12-06T00:06:52.849Z,41.03
2022-12-06T00:09:32.809Z,39.15
2022-12-06T00:12:00.318Z,39.53
2022-12-06T00:14:27.711Z,41.15
2022-12-06T00:16:55.179Z,40.08
2022-12-06T00:19:24.268Z,40.85
2022-12-06T00:21:51.634Z,42.88
2022-12-06T00:24:22.666Z,44.70
2022-12-06T00:26:51.694Z,42.00
2022-12-06T00:29:23.517Z,42.00
2022-12-06T00:31:51.339Z,35.47
2022-12-06T00:34:18.721Z,38.25
2022-12-06T00:36:46.051Z,42.73
2022-12-06T00:39:16.975Z,38.92
2022-12-06T00:41:45.248Z,44.13
2022-12-06T00:44:13.155Z,41.17
2022-12-06T00:46:40.786Z,40.67
2022-12-06T00:49:09.767Z,39.70
2022-12-06T00:51:38.475Z,41.63
2022-12-06T00:54:07.313Z,38.38
2022-12-06T00:56:37.228Z,37.28
2022-12-06T00:59:05.463Z,43.47
2022-12-06T01:01:36.185Z,37.63
2022-12-06T01:04:07.457Z,41.25
2022-12-06T01:06:37.516Z,40.95
2022-12-06T01:09:09.814Z,35.88
2022-12-06T01:11:37.696Z,41.88
2022-12-06T01:14:05.161Z,39.88
2022-12-06T01:16:33.060Z,39.10
2022-12-06T01:19:03.765Z,41.33
2022-12-06T01:21:31.490Z,41.20
2022-12-06T01:23:59.222Z,42.58
2022-12-06T01:26:35.034Z,40.53
2022-12-06T01:29:04.039Z,39.03
2022-12-06T01:31:37.677Z,40.28
2022-12-06T01:34:09.750Z,38.85
2022-12-06T01:36:36.993Z,36.95
2022-12-06T01:39:06.925Z,36.72
2022-12-06T01:41:34.312Z,37.40
2022-12-06T01:44:01.808Z,36.47
2022-12-06T01:46:42.907Z,31.88
2022-12-06T01:49:13.020Z,39.60
2022-12-06T01:51:57.816Z,36.83
2022-12-06T01:54:26.638Z,38.05
2022-12-06T01:56:57.015Z,37.58
2022-12-06T01:59:26.853Z,35.67
2022-12-06T02:01:55.081Z,37.72
2022-12-06T02:04:24.441Z,36.05
2022-12-06T02:06:53.642Z,35.72
2022-12-06T02:09:22.537Z,34.72
2022-12-06T02:11:49.813Z,35.50
2022-12-06T02:14:25.241Z,37.00
2022-12-06T02:17:52.686Z,35.22
2022-12-06T02:20:32.947Z,34.13
2022-12-06T02:23:24.097Z,37.13
2022-12-06T02:26:28.999Z,32.88
2022-12-06T02:30:08.811Z,33.83
2022-12-06T02:32:55.779Z,39.08
2022-12-06T02:35:35.316Z,34.15
2022-12-06T02:38:36.560Z,36.10
2022-12-06T02:41:30.189Z,37.85
2022-12-06T02:44:05.804Z,35.92
2022-12-06T02:46:37.419Z,36.88
2022-12-06T02:49:07.592Z,36.80
2022-12-06T02:51:37.305Z,39.65
2022-12-06T02:54:09.818Z,37.47
2022-12-06T02:56:37.095Z,38.88
2022-12-06T02:59:05.657Z,34.28
2022-12-06T03:01:39.081Z,37.75
2022-12-06T03:04:59.207Z,37.00
2022-12-06T03:07:42.808Z,40.97
2022-12-06T03:10:35.983Z,31.85
2022-12-06T03:14:08.287Z,33.53
2022-12-06T03:16:55.889Z,32.63
2022-12-06T03:19:29.565Z,35.20
2022-12-06T03:22:39.764Z,28.55
2022-12-06T03:25:10.201Z,33.97
2022-12-06T03:27:39.873Z,34.67
2022-12-06T03:30:12.544Z,33.83
2022-12-06T03:32:47.062Z,34.63
2022-12-06T03:35:23.249Z,30.23
2022-12-06T03:38:19.092Z,29.27
2022-12-06T03:40:51.524Z,38.22
2022-12-06T03:43:19.577Z,30.30
2022-12-06T03:46:04.906Z,34.05
2022-12-06T03:48:49.059Z,26.85
2022-12-06T03:51:29.556Z,26.55
2022-12-06T03:54:02.845Z,27.80
2022-12-06T03:56:31.115Z,28.17
2022-12-06T03:58:58.524Z,29.25
2022-12-06T04:01:25.808Z,28.55
2022-12-06T04:03:53.195Z,29.02
2022-12-06T04:06:20.601Z,27.90
2022-12-06T04:08:47.899Z,20.92
2022-12-06T04:11:15.016Z,27.13
2022-12-06T04:13:42.195Z,25.52
2022-12-06T04:16:29.606Z,30.13
2022-12-06T04:18:56.984Z,31.83
2022-12-06T04:21:33.215Z,31.25
2022-12-06T04:24:00.526Z,26.50
2022-12-06T04:26:27.785Z,28.83
2022-12-06T04:29:13.738Z,31.27
2022-12-06T04:31:59.769Z,33.67
2022-12-06T04:34:45.917Z,32.05
2022-12-06T04:37:31.793Z,26.83
2022-12-06T04:39:59.412Z,34.35
2022-12-06T04:42:45.586Z,30.77
2022-12-06T04:45:12.863Z,28.88
2022-12-06T04:47:39.992Z,32.00
2022-12-06T04:50:07.967Z,27.02
2022-12-06T04:52:36.161Z,30.58
2022-12-06T04:55:05.318Z,26.17
2022-12-06T04:57:32.541Z,28.55
2022-12-06T04:59:59.982Z,28.70
2022-12-06T05:02:27.317Z,30.50
2022-12-06T05:04:54.498Z,27.38
2022-12-06T05:07:21.766Z,29.85
2022-12-06T05:09:49.009Z,24.65
2022-12-06T05:12:16.165Z,26.65
2022-12-06T05:14:43.301Z,28.08
2022-12-06T05:17:10.464Z,23.95
2022-12-06T05:19:37.623Z,24.55
2022-12-06T05:22:05.101Z,24.48
2022-12-06T05:24:32.488Z,22.60
2022-12-06T05:26:59.704Z,22.85
2022-12-06T05:29:26.878Z,22.63
2022-12-06T05:31:54.188Z,27.63
2022-12-06T05:34:21.506Z,25.80
2022-12-06T05:36:48.861Z,25.67
2022-12-06T05:39:16.815Z,27.98
2022-12-06T05:41:44.053Z,27.90
2022-12-06T05:44:12.443Z,26.52
2022-12-06T05:46:39.706Z,25.52
2022-12-06T05:49:06.900Z,26.30
2022-12-06T05:51:34.080Z,25.40
2022-12-06T05:54:05.025Z,23.27
2022-12-06T05:56:33.282Z,25.35
2022-12-06T05:59:00.528Z,25.67
2022-12-06T06:01:27.812Z,25.42
2022-12-06T06:03:54.959Z,23.98
2022-12-06T06:06:23.466Z,23.10
2022-12-06T06:08:52.542Z,24.45
2022-12-06T06:11:19.766Z,20.75
2022-12-06T06:13:47.057Z,22.50
2022-12-06T06:16:14.330Z,24.88
2022-12-06T06:18:41.764Z,25.08
2022-12-06T06:21:08.951Z,25.38
2022-12-06T06:23:36.099Z,23.42
2022-12-06T06:26:09.177Z,24.48
2022-12-06T06:28:36.573Z,24.95
2022-12-06T06:31:06.477Z,32.60
2022-12-06T06:33:34.184Z,28.73
2022-12-06T06:36:01.374Z,26.90
2022-12-06T06:38:28.721Z,29.27
2022-12-06T06:40:55.914Z,27.17
2022-12-06T06:43:23.512Z,24.40
2022-12-06T06:46:09.537Z,23.38
2022-12-06T06:48:39.323Z,23.80
2022-12-06T06:51:13.062Z,24.15
2022-12-06T06:53:40.900Z,23.67
2022-12-06T06:56:09.033Z,25.02
2022-12-06T06:58:36.912Z,26.23
2022-12-06T07:01:06.986Z,28.90
2022-12-06T07:03:35.523Z,37.67
2022-12-06T07:06:10.198Z,36.67
2022-12-06T07:08:40.227Z,36.13
2022-12-06T07:11:09.608Z,29.60
2022-12-06T07:13:39.420Z,31.58
2022-12-06T07:16:13.635Z,27.75
2022-12-06T07:18:42.299Z,33.58
2022-12-06T07:21:14.412Z,29.17
2022-12-06T07:23:42.434Z,28.23
2022-12-06T07:26:20.176Z,30.10
2022-12-06T07:28:49.970Z,32.72
2022-12-06T07:31:26.290Z,31.33
2022-12-06T07:33:57.297Z,32.70
2022-12-06T07:36:27.912Z,30.33
2022-12-06T07:38:57.632Z,30.63
2022-12-06T07:41:47.072Z,35.35
2022-12-06T07:44:58.361Z,34.58
2022-12-06T07:47:44.693Z,32.70
2022-12-06T07:50:20.112Z,33.95
2022-12-06T07:52:50.590Z,33.83
2022-12-06T07:55:18.349Z,30.38
2022-12-06T07:57:46.672Z,30.95
2022-12-06T08:00:16.229Z,34.63
2022-12-06T08:02:44.025Z,30.92
2022-12-06T08:05:12.039Z,29.48
2022-12-06T08:07:39.522Z,32.33
2022-12-06T08:10:08.241Z,31.52
2022-12-06T08:12:35.547Z,29.38
2022-12-06T08:15:02.877Z,33.33
2022-12-06T08:17:30.959Z,32.55
2022-12-06T08:19:58.519Z,33.85
2022-12-06T08:22:26.043Z,37.03
2022-12-06T08:24:53.331Z,35.33
2022-12-06T08:27:20.460Z,35.38
2022-12-06T08:29:47.701Z,36.58
2022-12-06T08:32:14.916Z,33.67
2022-12-06T08:34:43.626Z,37.65
2022-12-06T08:37:12.219Z,35.08
2022-12-06T08:39:39.389Z,36.03
2022-12-06T08:42:07.773Z,36.85
2022-12-06T08:44:36.322Z,35.95
2022-12-06T08:47:04.188Z,38.85
2022-12-06T08:49:31.953Z,43.30
2022-12-06T08:51:59.910Z,45.10
2022-12-06T08:54:28.766Z,47.97
2022-12-06T08:56:56.126Z,51.88
2022-12-06T08:59:24.053Z,53.70
2022-12-06T09:01:51.622Z,51.90
2022-12-06T09:04:18.992Z,45.30
2022-12-06T09:06:46.705Z,49.45
2022-12-06T09:09:17.096Z,46.13
2022-12-06T09:11:46.101Z,45.92
2022-12-06T09:14:21.375Z,43.65
2022-12-06T09:19:19.763Z,40.72
2022-12-06T09:21:47.092Z,38.58
2022-12-06T09:24:17.772Z,34.17
2022-12-06T09:26:45.750Z,35.35
2022-12-06T09:29:15.226Z,35.63
2022-12-06T09:31:42.472Z,31.70
2022-12-06T09:34:12.708Z,33.53
2022-12-06T09:37:07.380Z,34.90
2022-12-06T09:39:46.661Z,39.13
2022-12-06T09:43:05.781Z,39.05
2022-12-06T09:46:15.493Z,41.22
2022-12-06T09:49:21.842Z,36.63
2022-12-06T09:52:10.556Z,29.80
2022-12-06T09:55:24.375Z,33.35
2022-12-06T09:58:53.237Z,29.63
2022-12-06T10:01:41.853Z,34.97
2022-12-06T10:05:06.042Z,35.75
2022-12-06T10:08:20.660Z,29.42
2022-12-06T10:11:15.258Z,33.75
2022-12-06T10:14:20.170Z,31.73
2022-12-06T10:17:29.308Z,29.67
2022-12-06T10:20:25.946Z,29.08
2022-12-06T10:26:19.632Z,28.20
2022-12-06T10:29:29.504Z,27.75
2022-12-06T10:32:46.088Z,29.80
2022-12-06T10:35:42.344Z,26.27
2022-12-06T10:38:46.739Z,27.95
2022-12-06T10:41:26.561Z,25.08
2022-12-06T10:44:41.301Z,26.60
2022-12-06T10:47:28.320Z,25.95
2022-12-06T10:50:30.893Z,27.48
2022-12-06T10:53:20.246Z,25.98
2022-12-06T10:55:57.933Z,24.67
2022-12-06T10:59:31.622Z,26.25
2022-12-06T11:02:19.654Z,25.73
2022-12-06T11:04:49.366Z,20.30
2022-12-06T11:07:40.246Z,20.73
2022-12-06T11:10:28.817Z,21.42
2022-12-06T11:13:24.594Z,21.35
2022-12-06T11:16:16.212Z,19.80
2022-12-06T11:18:45.320Z,20.48
2022-12-06T11:21:28.297Z,21.35
2022-12-06T11:24:17.518Z,16.08
2022-12-06T11:27:16.794Z,17.42
2022-12-06T11:29:48.272Z,16.98
2022-12-06T11:32:17.063Z,18.83
2022-12-06T11:34:53.845Z,17.80
2022-12-06T11:37:27.242Z,19.38
2022-12-06T11:40:07.412Z,17.85
2022-12-06T11:42:34.752Z,18.40
2022-12-06T11:45:34.621Z,16.52
2022-12-06T11:48:35.740Z,17.63
2022-12-06T11:51:04.014Z,19.98
2022-12-06T11:53:57.859Z,18.33
2022-12-06T11:56:40.329Z,21.60
2022-12-06T11:59:29.010Z,21.45
2022-12-06T12:02:03.574Z,21.35
2022-12-06T12:04:42.672Z,20.52
2022-12-06T12:07:09.717Z,18.85
2022-12-06T12:09:57.276Z,20.05
2022-12-06T12:13:05.065Z,20.75
2022-12-06T12:15:33.143Z,25.25
2022-12-06T12:18:02.501Z,25.75
2022-12-06T12:20:45.244Z,24.40
2022-12-06T12:23:23.962Z,20.20
2022-12-06T12:26:20.213Z,23.73
2022-12-06T12:29:22.031Z,23.63
2022-12-06T12:32:00.159Z,21.58
2022-12-06T12:34:29.840Z,25.30
2022-12-06T12:37:02.791Z,26.50
2022-12-06T12:39:50.289Z,27.58
2022-12-06T12:42:34.659Z,26.95
2022-12-06T12:45:05.976Z,26.75
2022-12-06T12:47:33.516Z,24.33
2022-12-06T12:50:25.700Z,23.70
2022-12-06T12:52:53.980Z,23.23
2022-12-06T12:55:31.005Z,24.80
2022-12-06T12:58:01.705Z,25.98
2022-12-06T13:00:41.975Z,25.67
2022-12-06T13:03:50.056Z,25.02
2022-12-06T13:06:48.118Z,24.25
2022-12-06T13:09:41.017Z,25.43
2022-12-06T13:12:43.289Z,22.65
2022-12-06T13:15:50.612Z,24.35
2022-12-06T13:18:42.858Z,25.35
2022-12-06T13:21:22.804Z,25.23
2022-12-06T13:23:59.909Z,24.45
2022-12-06T13:26:35.244Z,23.70
2022-12-06T13:29:37.416Z,23.85
2022-12-06T13:32:31.947Z,23.02
2022-12-06T13:35:27.212Z,22.25
2022-12-06T13:38:26.381Z,20.77
2022-12-06T13:40:58.224Z,20.83
2022-12-06T13:43:25.224Z,21.30
2022-12-06T13:46:09.083Z,23.60
2022-12-06T13:48:57.952Z,23.05
2022-12-06T13:51:31.077Z,23.38
2022-12-06T13:54:06.790Z,22.42
2022-12-06T13:59:21.103Z,22.38
2022-12-06T14:01:56.864Z,22.08
2022-12-06T14:07:00.089Z,23.35
2022-12-06T14:09:55.358Z,24.45
2022-12-06T14:12:28.560Z,23.30
2022-12-06T14:15:05.989Z,22.13
2022-12-06T14:20:31.883Z,23.67
2022-12-06T14:22:59.387Z,22.13
2022-12-06T14:25:31.265Z,23.80
2022-12-06T14:28:13.079Z,22.52
2022-12-06T14:30:40.466Z,22.33
2022-12-06T14:33:24.115Z,22.52
2022-12-06T14:35:54.304Z,23.05
2022-12-06T14:38:30.917Z,23.88
2022-12-06T14:41:17.154Z,24.58
2022-12-06T14:43:47.899Z,25.20
2022-12-06T14:46:17.954Z,26.23
2022-12-06T14:49:04.491Z,26.10
2022-12-06T14:51:42.500Z,25.48
2022-12-06T14:54:41.228Z,24.88
2022-12-06T14:57:31.677Z,25.08
2022-12-06T15:00:25.998Z,24.90
2022-12-06T15:03:04.156Z,26.05
2022-12-06T15:05:40.424Z,27.25
2022-12-06T15:08:35.104Z,28.17
2022-12-06T15:11:11.461Z,25.25
2022-12-06T15:13:40.213Z,28.27
2022-12-06T15:16:10.360Z,30.65
2022-12-06T15:18:42.728Z,29.33
2022-12-06T15:21:15.646Z,31.58
2022-12-06T15:23:56.580Z,33.00
2022-12-06T15:26:25.036Z,34.72
2022-12-06T15:28:52.254Z,35.45
2022-12-06T15:31:29.007Z,35.15
2022-12-06T15:33:56.674Z,34.38
2022-12-06T15:36:34.554Z,33.72
2022-12-06T15:39:01.716Z,37.95
2022-12-06T15:41:30.040Z,36.45
2022-12-06T15:43:57.720Z,36.92
2022-12-06T15:46:29.097Z,37.60
2022-12-06T15:48:57.520Z,38.80
2022-12-06T15:51:27.045Z,39.47
2022-12-06T15:53:57.343Z,40.65
2022-12-06T15:56:29.710Z,39.95
2022-12-06T15:58:57.253Z,40.05
2022-12-06T16:01:47.426Z,40.75
2022-12-06T16:04:27.237Z,38.88
2022-12-06T16:06:54.729Z,38.33
2022-12-06T16:09:22.156Z,39.92
2022-12-06T16:11:49.392Z,40.67
2022-12-06T16:14:16.612Z,40.72
2022-12-06T16:16:43.969Z,40.25
2022-12-06T16:19:11.207Z,40.80
2022-12-06T16:21:57.530Z,41.25
2022-12-06T16:24:24.888Z,44.08
2022-12-06T16:26:52.136Z,43.92
2022-12-06T16:29:25.840Z,46.30
2022-12-06T16:31:54.002Z,44.10
2022-12-06T16:34:21.291Z,40.65
2022-12-06T16:37:06.367Z,42.47
2022-12-06T16:39:35.139Z,44.25
2022-12-06T16:42:04.890Z,44.13
2022-12-06T16:44:32.424Z,44.90
2022-12-06T16:46:59.729Z,41.50
2022-12-06T16:49:45.731Z,43.83
2022-12-06T16:52:15.039Z,45.80
2022-12-06T16:54:42.660Z,43.97
2022-12-06T16:57:14.083Z,46.08
2022-12-06T16:59:42.413Z,46.88
2022-12-06T17:02:28.898Z,46.42
2022-12-06T17:05:00.028Z,45.38
2022-12-06T17:07:28.032Z,46.63
2022-12-06T17:09:55.337Z,48.40
2022-12-06T17:12:23.150Z,47.70
2022-12-06T17:14:50.958Z,49.40
2022-12-06T17:17:22.178Z,48.58
2022-12-06T17:19:49.775Z,47.33
2022-12-06T17:22:18.609Z,47.45
2022-12-06T17:24:46.460Z,49.67
2022-12-06T17:27:15.258Z,50.58
2022-12-06T17:29:43.987Z,48.33
2022-12-06T17:32:12.740Z,50.40
2022-12-06T17:34:40.042Z,50.97
2022-12-06T17:37:07.360Z,49.35
2022-12-06T17:39:35.036Z,47.03
2022-12-06T17:42:21.052Z,44.33
2022-12-06T17:44:49.945Z,55.55
2022-12-06T17:47:18.414Z,55.88
2022-12-06T17:49:45.860Z,50.50
2022-12-06T17:52:13.707Z,51.92
2022-12-06T17:54:41.068Z,49.78
2022-12-06T17:57:17.982Z,48.88
2022-12-06T17:59:48.080Z,53.53
2022-12-06T18:02:22.443Z,51.95
2022-12-06T18:04:50.058Z,53.25
2022-12-06T18:07:18.450Z,52.72
2022-12-06T18:09:46.197Z,52.90
2022-12-06T18:12:15.904Z,51.75
2022-12-06T18:14:44.741Z,53.53
2022-12-06T18:17:12.669Z,48.35
2022-12-06T18:19:40.736Z,50.78
2022-12-06T18:22:08.661Z,52.95
2022-12-06T18:24:36.556Z,55.80
2022-12-06T18:27:06.291Z,53.83
2022-12-06T18:29:34.228Z,55.55
2022-12-06T18:32:02.309Z,53.97
2022-12-06T18:34:29.918Z,56.15
2022-12-06T18:36:57.092Z,56.65
2022-12-06T18:39:24.958Z,55.30
2022-12-06T18:41:54.172Z,56.35
2022-12-06T18:44:22.525Z,52.95
2022-12-06T18:46:49.905Z,55.55
2022-12-06T18:49:17.349Z,53.08
2022-12-06T18:51:44.863Z,53.90
2022-12-06T18:54:13.868Z,48.65
2022-12-06T18:56:42.109Z,45.30
2022-12-06T18:59:11.453Z,45.45
2022-12-06T19:01:41.135Z,44.53
2022-12-06T19:04:14.259Z,48.65
2022-12-06T19:06:43.117Z,48.50
2022-12-06T19:09:14.836Z,47.40
2022-12-06T19:11:46.149Z,47.97
2022-12-06T19:14:14.940Z,49.22
2022-12-06T19:16:46.307Z,50.88
2022-12-06T19:19:25.369Z,55.20
2022-12-06T19:21:54.614Z,56.97
2022-12-06T19:24:25.695Z,58.25
2022-12-06T19:26:55.418Z,59.85
2022-12-06T19:29:22.921Z,60.15
2022-12-06T19:31:50.995Z,57.55
2022-12-06T19:34:27.417Z,56.80
2022-12-06T19:36:55.393Z,59.92
2022-12-06T19:39:25.991Z,64.22
2022-12-06T19:42:12.068Z,60.88
2022-12-06T19:44:39.473Z,61.25
2022-12-06T19:47:09.764Z,61.58
2022-12-06T19:49:37.101Z,70.40
2022-12-06T19:52:04.480Z,61.00
2022-12-06T19:54:37.099Z,60.95
2022-12-06T19:57:05.234Z,61.53
2022-12-06T19:59:36.406Z,57.28
2022-12-06T20:02:04.466Z,55.00
2022-12-06T20:04:39.642Z,52.45
2022-12-06T20:07:07.180Z,55.90
2022-12-06T20:09:35.047Z,53.13
2022-12-06T20:12:06.060Z,55.42
2022-12-06T20:14:43.203Z,54.92
2022-12-06T20:17:23.498Z,54.85
2022-12-06T20:19:51.140Z,52.45
2022-12-06T20:22:22.164Z,52.35
2022-12-06T20:24:49.485Z,57.53
2022-12-06T20:27:17.024Z,61.15
2022-12-06T20:29:46.042Z,59.50
2022-12-06T20:32:21.851Z,54.97
2022-12-06T20:34:53.673Z,50.05
2022-12-06T20:37:23.088Z,51.03
2022-12-06T20:39:50.720Z,50.10
2022-12-06T20:42:17.857Z,47.60
2022-12-06T20:44:45.147Z,45.22
2022-12-06T20:47:12.513Z,43.53
2022-12-06T20:49:39.716Z,48.45
2022-12-06T20:52:07.276Z,45.30
2022-12-06T20:54:34.524Z,43.40
2022-12-06T20:57:06.384Z,43.47
2022-12-06T20:59:35.037Z,43.45
2022-12-06T21:02:03.210Z,61.90
2022-12-06T21:04:31.463Z,64.47
2022-12-06T21:06:59.320Z,52.45
2022-12-06T21:09:27.175Z,48.20
2022-12-06T21:11:54.496Z,49.35
2022-12-06T21:14:22.161Z,45.90
2022-12-06T21:16:49.379Z,47.92
2022-12-06T21:19:19.516Z,48.78
2022-12-06T21:21:53.855Z,49.53
2022-12-06T21:24:22.397Z,49.90
2022-12-06T21:26:50.084Z,48.97
2022-12-06T21:29:30.591Z,48.85
2022-12-06T21:32:01.440Z,46.97
2022-12-06T21:34:29.433Z,50.42
2022-12-06T21:36:56.889Z,50.25
2022-12-06T21:39:25.213Z,50.42
2022-12-06T21:41:53.974Z,49.47
2022-12-06T21:44:21.836Z,50.35
2022-12-06T21:46:53.818Z,48.35
2022-12-06T21:49:21.389Z,47.75
2022-12-06T21:51:48.607Z,48.88
2022-12-06T21:54:15.851Z,44.47
2022-12-06T21:56:43.166Z,44.67
2022-12-06T21:59:10.355Z,44.75
2022-12-06T22:01:40.486Z,50.63
2022-12-06T22:04:07.859Z,46.03
2022-12-06T22:06:37.060Z,44.45
2022-12-06T22:09:06.451Z,45.47
2022-12-06T22:11:35.235Z,45.10
2022-12-06T22:14:04.804Z,47.08
2022-12-06T22:16:32.579Z,42.38
2022-12-06T22:18:59.790Z,44.65
2022-12-06T22:21:31.166Z,43.45
2022-12-06T22:23:59.165Z,42.35
2022-12-06T22:26:29.883Z,43.08
2022-12-06T22:28:59.620Z,43.08
2022-12-06T22:31:33.119Z,43.72
2022-12-06T22:34:01.728Z,47.85
2022-12-06T22:36:29.239Z,47.17
2022-12-06T22:39:00.287Z,42.70
2022-12-06T22:41:30.342Z,47.22
2022-12-06T22:44:02.044Z,50.15
2022-12-06T22:46:31.897Z,49.70
2022-12-06T22:49:01.348Z,51.97
2022-12-06T22:51:38.472Z,52.80
2022-12-06T22:54:16.016Z,55.88
2022-12-06T22:56:49.402Z,51.42
2022-12-06T22:59:17.694Z,48.83
2022-12-06T23:01:45.027Z,50.50
2022-12-06T23:04:12.415Z,48.22
2022-12-06T23:06:39.982Z,46.78
2022-12-06T23:09:08.193Z,50.42
2022-12-06T23:11:37.074Z,47.72
2022-12-06T23:14:04.994Z,46.65
2022-12-06T23:16:33.130Z,49.47
2022-12-06T23:19:02.792Z,48.67
2022-12-06T23:21:36.204Z,50.45
2022-12-06T23:24:11.193Z,49.50
2022-12-06T23:26:46.726Z,46.67
2022-12-06T23:29:15.732Z,48.28
2022-12-06T23:31:46.277Z,47.97
2022-12-06T23:34:22.234Z,49.72
2022-12-06T23:36:49.837Z,52.45
2022-12-06T23:39:17.504Z,51.40
2022-12-06T23:41:45.264Z,50.35
2022-12-06T23:44:13.397Z,48.97
2022-12-06T23:46:43.097Z,48.20
2022-12-06T23:49:22.355Z,50.63
2022-12-06T23:51:50.315Z,54.13
2022-12-06T23:54:18.349Z,57.22
2022-12-06T23:56:46.236Z,54.55
2022-12-06T23:59:15.568Z,55.67
